Etusivu
METAR-TAF:

METAR-TAF

Lentoasemat :

Stokmarknes, Norja

Stokmarknesin lentoasema

Leveyspiiri: 68-35N, Pituuspiiri: 015-01E, korkeus merenpinnasta: 0 m

Tämänhetkinen sää

Tämä raportti tehtiin 5 tuntia ja 33 minuuttia sitten, kello 18.50 UTC
Tuuli 2 kn eri suunnista
Lämpötila 10°C
Kosteus 71%
Ilmanpaine 1013 hPa
Näkyvyys 10 km tai enemmän
Muutamia pilviä 3000 ft:n korkeudessa
Hajanaisia pilviä 4500 ft:n korkeudessa

METAR: ENSK 281850Z VRB02KT 9999 FEW030 SCT045 10/05 Q1013

Aika: 02:23 (00:23 UTC)


TAF: puuttuu

Säähavainnot ja -ennusteet yli 4000 lentoasemalta (METAR- ja TAF-raportit).

Käytössä olevat sääasemat on merkitty karttaan keltaisilla ja punaisilla pisteillä.

Aseta hiiri pisteen päälle nähdäksesi sääaseman nimen.

Klikkaa sitten nähdäksesi säähavainnot ja -ennusteet.

Kartan vaihtaminen: klikkaa mustalla rastilla varustettuja vihreitä pisteitä, niin voit zoomata sisään; viivalla varustettua vihreää pistettä, niin voit zoomata ulos tai vihreitä nuolia, niin pääset viereisille kartoille.


METAR-TAF: